Time;durP1;ratioP1;P1;durP2;ratioP2;P2;SDS_P1;SDS_P2;PMS_P1;PMS_P2;Temp;Humidity;BMP_temperature;BMP_pressure;BME280_temperature;BME280_humidity;BME280_pressure;Samples;Min_cycle;Max_cycle;Signal;HPM_P1;HPM_P2
2022/12/16 00:01:49;;;;;;;68.78;47.22;;;;;;;-3.59;100.00;159643.72;5028701;28;20049;-60
2022/12/16 00:04:16;;;;;;;72.65;45.80;;;;;;;-3.49;100.00;159667.78;5030994;28;20021;-60
2022/12/16 00:06:42;;;;;;;71.90;46.42;;;;;;;-3.41;100.00;159689.19;5031754;28;20115;-60
2022/12/16 00:09:08;;;;;;;81.28;47.08;;;;;;;-3.38;100.00;159697.19;5033693;28;20481;-60
2022/12/16 00:11:33;;;;;;;64.32;42.67;;;;;;;-3.33;100.00;159710.59;5032366;28;20119;-60
2022/12/16 00:13:59;;;;;;;61.85;42.47;;;;;;;-3.36;100.00;159703.91;5042532;28;20013;-59
2022/12/16 00:16:24;;;;;;;77.70;48.45;;;;;;;-3.43;100.00;159685.19;5052538;28;20126;-59
2022/12/16 00:18:50;;;;;;;63.05;40.70;;;;;;;-3.37;100.00;159699.84;5053798;28;20090;-59
2022/12/16 00:21:17;;;;;;;63.88;40.42;;;;;;;-3.31;100.00;159715.91;5051842;28;20063;-59
2022/12/16 00:23:43;;;;;;;63.13;42.38;;;;;;;-3.24;100.00;159734.59;5053949;28;20020;-59
2022/12/16 00:26:09;;;;;;;65.55;43.58;;;;;;;-3.15;100.00;159756.00;5051714;28;20618;-59
2022/12/16 00:28:35;;;;;;;70.55;44.92;;;;;;;-3.14;100.00;159758.69;5053442;28;20058;-59
2022/12/16 00:31:00;;;;;;;73.15;42.33;;;;;;;-3.10;100.00;159769.41;5051983;28;20037;-59
2022/12/16 00:33:26;;;;;;;69.57;42.60;;;;;;;-3.06;100.00;159780.06;5053519;28;20476;-59
2022/12/16 00:35:53;;;;;;;68.13;42.72;;;;;;;-3.03;100.00;159788.13;5051813;28;20051;-59
2022/12/16 00:38:19;;;;;;;72.03;44.70;;;;;;;-3.07;100.00;159778.75;5053667;28;20091;-59
2022/12/16 00:40:45;;;;;;;67.90;43.40;;;;;;;-3.00;100.00;159796.13;5050230;28;20036;-59
2022/12/16 00:43:10;;;;;;;71.32;43.33;;;;;;;-2.96;100.00;159806.84;5053008;28;20021;-61
2022/12/16 00:45:36;;;;;;;66.75;41.85;;;;;;;-3.03;100.00;159788.13;5051632;28;20041;-61
2022/12/16 00:48:01;;;;;;;69.03;44.15;;;;;;;-3.14;100.00;159758.69;5053455;28;20387;-60
2022/12/16 00:50:27;;;;;;;62.38;41.63;;;;;;;-3.03;100.00;159788.13;5053477;28;20029;-60
2022/12/16 00:52:52;;;;;;;69.07;44.83;;;;;;;-2.95;100.00;159808.16;5051832;28;20033;-60
2022/12/16 00:55:18;;;;;;;67.40;39.92;;;;;;;-2.99;100.00;159798.78;5052917;28;20086;-60
2022/12/16 00:57:44;;;;;;;68.55;41.97;;;;;;;-3.01;100.00;159793.44;5051714;28;20118;-60
2022/12/16 01:00:11;;;;;;;64.82;43.92;;;;;;;-2.93;100.00;159813.50;5053262;28;20484;-60
2022/12/16 01:02:41;;;;;;;59.75;41.70;;;;;;;-2.88;100.00;159828.25;5051757;28;20045;-60
2022/12/16 01:05:09;;;;;;;62.83;45.17;;;;;;;-2.90;100.00;159822.88;5052746;28;20085;-60
2022/12/16 01:07:34;;;;;;;61.42;42.03;;;;;;;-2.87;100.00;159829.56;5047180;28;20103;-59
2022/12/16 01:10:00;;;;;;;64.45;42.45;;;;;;;-2.91;100.00;159820.19;5033161;28;20037;-60
2022/12/16 01:12:25;;;;;;;64.03;40.67;;;;;;;-2.92;100.00;159817.50;5031364;28;20041;-59
2022/12/16 01:14:51;;;;;;;72.25;40.30;;;;;;;-2.99;100.00;159798.78;5033158;28;20033;-60
2022/12/16 01:17:16;;;;;;;65.78;43.15;;;;;;;-2.96;100.00;159806.84;5031093;28;20723;-60
2022/12/16 01:19:41;;;;;;;56.60;37.45;;;;;;;-2.89;100.00;159825.56;5032860;28;20048;-60
2022/12/16 01:22:07;;;;;;;63.28;42.70;;;;;;;-2.92;100.00;159817.50;5031308;28;20065;-60
2022/12/16 01:24:33;;;;;;;64.65;41.13;;;;;;;-2.82;100.00;159842.91;5033329;28;20021;-60
2022/12/16 01:26:58;;;;;;;66.38;41.67;;;;;;;-2.89;100.00;159825.56;5031100;28;20404;-61
2022/12/16 01:29:24;;;;;;;62.53;37.83;;;;;;;-2.94;100.00;159810.84;5033091;28;20025;-60
2022/12/16 01:31:50;;;;;;;53.80;38.53;;;;;;;-2.88;100.00;159828.25;5031509;28;20443;-60
2022/12/16 01:34:15;;;;;;;62.50;38.22;;;;;;;-2.82;100.00;159841.59;5032415;28;20075;-60
2022/12/16 01:36:41;;;;;;;61.28;42.00;;;;;;;-2.75;100.00;159861.63;5032069;28;20050;-60
2022/12/16 01:39:08;;;;;;;61.42;38.40;;;;;;;-2.77;100.00;159856.31;5032523;28;20021;-60
2022/12/16 01:41:34;;;;;;;63.78;39.38;;;;;;;-2.78;100.00;159852.28;5030827;28;20095;-60
2022/12/16 01:44:17;;;;;;;72.03;43.13;;;;;;;-2.78;100.00;159852.28;5050057;28;20033;-60
2022/12/16 01:46:48;;;;;;;63.28;40.97;;;;;;;-2.84;100.00;159836.22;5051233;28;20110;-60
2022/12/16 01:49:23;;;;;;;67.22;40.88;;;;;;;-2.91;100.00;159820.19;5052314;28;20032;-61
2022/12/16 01:51:49;;;;;;;60.47;38.70;;;;;;;-2.91;100.00;159820.19;5050937;28;20087;-60
2022/12/16 01:54:20;;;;;;;67.13;43.35;;;;;;;-2.99;100.00;159798.78;5052401;28;20025;-60
2022/12/16 01:56:59;;;;;;;62.60;41.72;;;;;;;-2.96;100.00;159805.47;5048883;28;20045;-60
2022/12/16 01:59:28;;;;;;;65.70;42.38;;;;;;;-2.84;100.00;159836.22;5052457;28;20040;-60
2022/12/16 02:01:54;;;;;;;63.13;42.22;;;;;;;-2.82;100.00;159841.59;5050610;28;20037;-60
2022/12/16 02:04:20;;;;;;;63.35;44.47;;;;;;;-2.88;100.00;159828.25;5051825;28;20033;-59
2022/12/16 02:06:46;;;;;;;64.70;41.53;;;;;;;-2.81;100.00;159844.28;5050658;28;20558;-60
2022/12/16 02:09:14;;;;;;;68.88;41.55;;;;;;;-2.71;100.00;159872.34;5051997;28;20029;-59
2022/12/16 02:11:49;;;;;;;63.45;42.72;;;;;;;-2.73;100.00;159865.69;5049979;28;20056;-59
2022/12/16 02:14:38;;;;;;;67.13;42.10;;;;;;;-2.70;100.00;159873.66;5051842;28;20028;-59
2022/12/16 02:17:17;;;;;;;72.07;47.38;;;;;;;-2.75;100.00;159860.31;5050036;28;20075;-59
2022/12/16 02:20:12;;;;;;;73.03;44.30;;;;;;;-2.76;100.00;159859.00;5051708;28;20024;-59
2022/12/16 02:22:56;;;;;;;67.75;43.40;;;;;;;-2.84;100.00;159836.22;5024829;28;20136;-59
2022/12/16 02:25:57;;;;;;;69.10;44.95;;;;;;;-2.88;100.00;159826.88;5051482;28;20024;-60
2022/12/16 02:28:43;;;;;;;75.95;46.22;;;;;;;-2.94;100.00;159812.16;4987999;28;20053;-59
2022/12/16 02:31:23;;;;;;;63.20;45.28;;;;;;;-2.98;100.00;159801.47;5045390;28;20049;-59
2022/12/16 02:33:58;;;;;;;75.10;45.72;;;;;;;-2.98;100.00;159801.47;5049390;28;20024;-59
2022/12/16 02:37:02;;;;;;;74.40;43.03;;;;;;;-2.99;100.00;159798.78;5050228;28;20049;-59
2022/12/16 02:39:35;;;;;;;77.75;49.15;;;;;;;-2.95;100.00;159809.53;5051183;28;20017;-59
2022/12/16 02:42:26;;;;;;;68.43;46.80;;;;;;;-2.80;100.00;159846.97;5049522;28;20048;-59
2022/12/16 02:45:00;;;;;;;72.70;47.13;;;;;;;-2.77;100.00;159854.94;5051404;28;20049;-59
2022/12/16 02:47:26;;;;;;;79.38;49.97;;;;;;;-2.74;100.00;159863.00;5048119;28;20044;-58
2022/12/16 02:49:52;;;;;;;78.88;48.75;;;;;;;-2.72;100.00;159869.66;5051442;28;20380;-59
2022/12/16 02:52:21;;;;;;;81.32;49.90;;;;;;;-2.66;100.00;159884.41;5049641;28;20406;-59
2022/12/16 02:54:50;;;;;;;74.32;47.17;;;;;;;-2.64;100.00;159888.41;5050983;28;20100;-58
2022/12/16 02:57:39;;;;;;;83.25;52.70;;;;;;;-2.64;100.00;159889.72;5010023;28;20065;-59
2022/12/16 03:00:06;;;;;;;74.85;46.55;;;;;;;-2.64;100.00;159889.72;5011674;28;20379;-59
2022/12/16 03:03:12;;;;;;;86.45;53.85;;;;;;;-2.65;100.00;159885.72;5009746;28;20077;-59
2022/12/16 03:05:47;;;;;;;88.32;54.65;;;;;;;-2.67;100.00;159881.72;4995038;28;20403;-59
2022/12/16 03:08:17;;;;;;;80.95;48.60;;;;;;;-2.72;100.00;159868.34;5031144;28;20029;-59
2022/12/16 03:10:47;;;;;;;78.45;47.95;;;;;;;-2.70;100.00;159873.66;5029454;28;20511;-58
2022/12/16 03:13:16;;;;;;;87.72;54.88;;;;;;;-2.69;100.00;159876.34;5030617;28;20033;-59
2022/12/16 03:15:43;;;;;;;70.85;48.05;;;;;;;-2.72;100.00;159868.34;5029596;28;20032;-59
2022/12/16 03:18:11;;;;;;;89.63;54.80;;;;;;;-2.75;100.00;159860.31;5030426;28;20026;-59
2022/12/16 03:20:45;;;;;;;87.88;51.90;;;;;;;-2.78;100.00;159853.63;5029592;28;20435;-59
2022/12/16 03:23:19;;;;;;;85.07;52.92;;;;;;;-2.77;100.00;159854.94;5030678;28;20036;-59
2022/12/16 03:25:47;;;;;;;92.45;55.30;;;;;;;-2.79;100.00;159849.63;5029210;28;20025;-59
2022/12/16 03:28:34;;;;;;;92.55;56.67;;;;;;;-2.80;100.00;159848.28;5030635;28;20021;-59
2022/12/16 03:31:16;;;;;;;79.13;50.28;;;;;;;-2.80;100.00;159846.97;5029279;28;20048;-59
2022/12/16 03:33:51;;;;;;;98.75;54.35;;;;;;;-2.82;100.00;159841.59;5030252;28;20026;-59
2022/12/16 03:36:21;;;;;;;95.80;57.58;;;;;;;-2.82;100.00;159842.91;5029034;28;20050;-59
2022/12/16 03:38:49;;;;;;;93.72;59.10;;;;;;;-2.82;100.00;159841.59;5030734;28;20026;-59
2022/12/16 03:41:18;;;;;;;92.00;58.55;;;;;;;-2.88;100.00;159828.25;5028680;28;20569;-59
2022/12/16 03:43:43;;;;;;;81.28;52.78;;;;;;;-2.90;100.00;159822.88;5030982;28;20032;-59
2022/12/16 03:46:10;;;;;;;86.53;54.25;;;;;;;-2.87;100.00;159830.88;5028866;28;20049;-59
2022/12/16 03:48:45;;;;;;;96.07;53.28;;;;;;;-2.91;100.00;159820.19;5031301;28;20109;-58
2022/12/16 03:51:10;;;;;;;93.97;55.30;;;;;;;-2.87;100.00;159830.88;5029334;28;20466;-59
2022/12/16 03:53:35;;;;;;;95.70;59.45;;;;;;;-2.84;100.00;159836.22;5030730;28;20021;-61
2022/12/16 03:56:01;;;;;;;99.18;56.75;;;;;;;-2.87;100.00;159830.88;5028606;28;20052;-61
2022/12/16 03:58:26;;;;;;;95.65;57.85;;;;;;;-2.85;100.00;159833.56;5030648;28;20033;-60
2022/12/16 04:00:52;;;;;;;101.22;58.38;;;;;;;-2.87;100.00;159830.88;5028743;28;20017;-60
2022/12/16 04:03:17;;;;;;;103.70;60.38;;;;;;;-2.90;100.00;159822.88;5041853;28;20047;-62
2022/12/16 04:05:44;;;;;;;84.13;54.65;;;;;;;-2.91;100.00;159820.19;5048997;28;20083;-63
2022/12/16 04:08:09;;;;;;;98.47;58.28;;;;;;;-2.91;100.00;159820.19;5050258;28;20108;-63
2022/12/16 04:24:18;;;;;;;104.43;62.15;;;;;;;-3.14;100.00;159758.69;5049982;28;20079;-59
2022/12/16 04:29:28;;;;;;;107.30;60.67;;;;;;;-3.20;100.00;159745.31;5048917;28;20091;-59
2022/12/16 04:31:54;;;;;;;103.38;59.30;;;;;;;-3.17;100.00;159750.69;5047911;28;20049;-59
2022/12/16 04:34:27;;;;;;;104.05;57.22;;;;;;;-3.16;100.00;159753.38;5050138;28;20021;-59
